Salt Lake City, Utah
Current Conditions -  °F | °C
As of 4:53 AM on Friday 31 Oct 2014 (Local Time) from KSLC Reporting Station
Scattered Clouds Scattered Clouds  
Wind Chill: 58°   Ceiling: Unl
Heat Index: 58°   Visibility: 10mi
Dew Point: 24°   Wind: 16mph
Humidity: 27%   Direction: 130°SE
Pressure: 30.02"   Gusts: NA
Location:  40.76°N, 111.88°W
Report Text: KSLC 311053Z 13014KT 10SM SCT200 14/M04 A3002 RMK AO2 SLP126 T01441044
Loading
Personal Weather Stations






























Interactive Weather Map
Tropical Storm Tracking
New forecast layout! Learn more

10-Day Weather Forecast

Advertisements
Track Severe Weather on mobile